sensor_id;sensor_type;location;lat;lon;timestamp;P1;durP1;ratioP1;P2;durP2;ratioP2
15679;SDS011;15488;48.114;11.532;2022-09-02T00:01:12;4.13;;;3.33;;
15679;SDS011;15488;48.114;11.532;2022-09-02T00:03:42;3.77;;;2.90;;
15679;SDS011;15488;48.114;11.532;2022-09-02T00:06:11;3.00;;;2.80;;
15679;SDS011;15488;48.114;11.532;2022-09-02T00:08:39;3.00;;;2.77;;
15679;SDS011;15488;48.114;11.532;2022-09-02T00:11:07;3.00;;;2.63;;
15679;SDS011;15488;48.114;11.532;2022-09-02T00:13:37;2.80;;;2.60;;
15679;SDS011;15488;48.114;11.532;2022-09-02T00:16:05;4.03;;;3.00;;
15679;SDS011;15488;48.114;11.532;2022-09-02T00:18:34;2.80;;;2.60;;
15679;SDS011;15488;48.114;11.532;2022-09-02T00:21:02;2.77;;;2.57;;
15679;SDS011;15488;48.114;11.532;2022-09-02T00:23:31;3.80;;;2.90;;
15679;SDS011;15488;48.114;11.532;2022-09-02T00:25:59;2.90;;;2.70;;
15679;SDS011;15488;48.114;11.532;2022-09-02T00:28:27;3.33;;;3.00;;
15679;SDS011;15488;48.114;11.532;2022-09-02T00:30:54;3.50;;;3.00;;
15679;SDS011;15488;48.114;11.532;2022-09-02T00:33:22;4.73;;;2.63;;
15679;SDS011;15488;48.114;11.532;2022-09-02T00:35:50;3.40;;;3.10;;
15679;SDS011;15488;48.114;11.532;2022-09-02T00:38:17;4.53;;;2.83;;
15679;SDS011;15488;48.114;11.532;2022-09-02T00:40:47;3.20;;;2.93;;
15679;SDS011;15488;48.114;11.532;2022-09-02T00:43:21;3.40;;;3.10;;
15679;SDS011;15488;48.114;11.532;2022-09-02T00:45:50;3.40;;;3.10;;
15679;SDS011;15488;48.114;11.532;2022-09-02T00:48:19;4.03;;;2.93;;
15679;SDS011;15488;48.114;11.532;2022-09-02T00:50:47;3.30;;;3.00;;
15679;SDS011;15488;48.114;11.532;2022-09-02T00:53:15;4.07;;;3.23;;
15679;SDS011;15488;48.114;11.532;2022-09-02T00:55:43;3.50;;;3.00;;
15679;SDS011;15488;48.114;11.532;2022-09-02T00:58:17;3.00;;;2.80;;
15679;SDS011;15488;48.114;11.532;2022-09-02T01:00:46;3.83;;;2.90;;
15679;SDS011;15488;48.114;11.532;2022-09-02T01:03:18;3.30;;;3.00;;
15679;SDS011;15488;48.114;11.532;2022-09-02T01:05:47;3.30;;;3.10;;
15679;SDS011;15488;48.114;11.532;2022-09-02T01:08:18;3.17;;;2.80;;
15679;SDS011;15488;48.114;11.532;2022-09-02T01:10:50;3.03;;;2.80;;
15679;SDS011;15488;48.114;11.532;2022-09-02T01:13:20;2.90;;;2.70;;
15679;SDS011;15488;48.114;11.532;2022-09-02T01:15:51;4.00;;;3.00;;
15679;SDS011;15488;48.114;11.532;2022-09-02T01:18:20;3.20;;;2.90;;
15679;SDS011;15488;48.114;11.532;2022-09-02T01:20:50;2.90;;;2.70;;
15679;SDS011;15488;48.114;11.532;2022-09-02T01:23:19;3.77;;;3.20;;
15679;SDS011;15488;48.114;11.532;2022-09-02T01:25:46;3.10;;;2.90;;
15679;SDS011;15488;48.114;11.532;2022-09-02T01:28:15;3.33;;;2.90;;
15679;SDS011;15488;48.114;11.532;2022-09-02T01:30:45;2.93;;;2.73;;
15679;SDS011;15488;48.114;11.532;2022-09-02T01:33:14;2.90;;;2.70;;
15679;SDS011;15488;48.114;11.532;2022-09-02T01:35:43;2.97;;;2.73;;
15679;SDS011;15488;48.114;11.532;2022-09-02T01:38:11;3.83;;;3.00;;
15679;SDS011;15488;48.114;11.532;2022-09-02T01:40:42;3.50;;;3.00;;
15679;SDS011;15488;48.114;11.532;2022-09-02T01:43:10;3.27;;;2.90;;
15679;SDS011;15488;48.114;11.532;2022-09-02T01:45:40;3.33;;;2.90;;
15679;SDS011;15488;48.114;11.532;2022-09-02T01:48:09;3.07;;;2.77;;
15679;SDS011;15488;48.114;11.532;2022-09-02T01:50:38;3.50;;;3.20;;
15679;SDS011;15488;48.114;11.532;2022-09-02T01:53:07;3.30;;;3.00;;
15679;SDS011;15488;48.114;11.532;2022-09-02T01:55:35;3.20;;;2.90;;
15679;SDS011;15488;48.114;11.532;2022-09-02T01:58:04;3.57;;;2.87;;
15679;SDS011;15488;48.114;11.532;2022-09-02T02:00:32;3.20;;;2.90;;
15679;SDS011;15488;48.114;11.532;2022-09-02T02:02:59;3.73;;;2.90;;
15679;SDS011;15488;48.114;11.532;2022-09-02T02:05:28;3.40;;;3.10;;
15679;SDS011;15488;48.114;11.532;2022-09-02T02:07:56;3.60;;;3.30;;
15679;SDS011;15488;48.114;11.532;2022-09-02T02:10:23;3.20;;;2.90;;
15679;SDS011;15488;48.114;11.532;2022-09-02T02:12:51;3.50;;;3.03;;
15679;SDS011;15488;48.114;11.532;2022-09-02T02:15:20;3.00;;;2.80;;
15679;SDS011;15488;48.114;11.532;2022-09-02T02:17:47;3.23;;;2.93;;
15679;SDS011;15488;48.114;11.532;2022-09-02T02:20:15;3.37;;;3.13;;
15679;SDS011;15488;48.114;11.532;2022-09-02T02:22:44;3.30;;;3.00;;
15679;SDS011;15488;48.114;11.532;2022-09-02T02:25:12;3.60;;;3.30;;
15679;SDS011;15488;48.114;11.532;2022-09-02T02:27:40;3.50;;;3.20;;
15679;SDS011;15488;48.114;11.532;2022-09-02T02:30:08;3.40;;;3.10;;
15679;SDS011;15488;48.114;11.532;2022-09-02T02:32:38;3.00;;;2.70;;
15679;SDS011;15488;48.114;11.532;2022-09-02T02:35:06;3.60;;;3.00;;
15679;SDS011;15488;48.114;11.532;2022-09-02T02:37:35;4.17;;;3.07;;
15679;SDS011;15488;48.114;11.532;2022-09-02T02:40:02;3.50;;;3.20;;
15679;SDS011;15488;48.114;11.532;2022-09-02T02:42:31;3.30;;;2.83;;
15679;SDS011;15488;48.114;11.532;2022-09-02T02:44:59;4.30;;;3.40;;
15679;SDS011;15488;48.114;11.532;2022-09-02T02:47:27;3.70;;;3.40;;
15679;SDS011;15488;48.114;11.532;2022-09-02T02:49:56;3.77;;;3.47;;
15679;SDS011;15488;48.114;11.532;2022-09-02T02:52:23;3.70;;;3.40;;
15679;SDS011;15488;48.114;11.532;2022-09-02T02:54:51;3.90;;;3.33;;
15679;SDS011;15488;48.114;11.532;2022-09-02T02:57:18;4.03;;;3.63;;
15679;SDS011;15488;48.114;11.532;2022-09-02T02:59:46;3.10;;;2.90;;
15679;SDS011;15488;48.114;11.532;2022-09-02T03:02:13;3.87;;;3.50;;
15679;SDS011;15488;48.114;11.532;2022-09-02T03:04:41;3.90;;;3.30;;
15679;SDS011;15488;48.114;11.532;2022-09-02T03:07:10;3.60;;;3.30;;
15679;SDS011;15488;48.114;11.532;2022-09-02T03:09:37;3.97;;;3.57;;
15679;SDS011;15488;48.114;11.532;2022-09-02T03:12:05;3.43;;;3.10;;
15679;SDS011;15488;48.114;11.532;2022-09-02T03:14:33;3.47;;;3.17;;
15679;SDS011;15488;48.114;11.532;2022-09-02T03:17:02;3.70;;;3.40;;
15679;SDS011;15488;48.114;11.532;2022-09-02T03:19:30;3.70;;;3.40;;
15679;SDS011;15488;48.114;11.532;2022-09-02T03:21:57;3.60;;;3.30;;
15679;SDS011;15488;48.114;11.532;2022-09-02T03:24:26;3.73;;;3.43;;
15679;SDS011;15488;48.114;11.532;2022-09-02T03:26:53;3.07;;;2.87;;
15679;SDS011;15488;48.114;11.532;2022-09-02T03:29:21;3.70;;;3.40;;
15679;SDS011;15488;48.114;11.532;2022-09-02T03:31:48;3.67;;;3.27;;
15679;SDS011;15488;48.114;11.532;2022-09-02T03:34:16;4.00;;;3.60;;
15679;SDS011;15488;48.114;11.532;2022-09-02T03:36:43;3.63;;;3.33;;
15679;SDS011;15488;48.114;11.532;2022-09-02T03:39:11;4.00;;;3.60;;
15679;SDS011;15488;48.114;11.532;2022-09-02T03:41:40;5.00;;;3.50;;
15679;SDS011;15488;48.114;11.532;2022-09-02T03:44:07;3.40;;;3.10;;
15679;SDS011;15488;48.114;11.532;2022-09-02T03:46:35;3.97;;;3.57;;
15679;SDS011;15488;48.114;11.532;2022-09-02T03:49:03;3.90;;;3.60;;
15679;SDS011;15488;48.114;11.532;2022-09-02T03:51:30;3.77;;;3.33;;
15679;SDS011;15488;48.114;11.532;2022-09-02T03:53:59;4.30;;;3.57;;
15679;SDS011;15488;48.114;11.532;2022-09-02T03:56:28;3.93;;;3.57;;
15679;SDS011;15488;48.114;11.532;2022-09-02T03:58:56;3.90;;;3.50;;
15679;SDS011;15488;48.114;11.532;2022-09-02T04:01:24;4.07;;;3.70;;
15679;SDS011;15488;48.114;11.532;2022-09-02T04:03:53;3.83;;;3.43;;
15679;SDS011;15488;48.114;11.532;2022-09-02T04:06:21;4.40;;;3.50;;
15679;SDS011;15488;48.114;11.532;2022-09-02T04:08:49;4.40;;;4.00;;
15679;SDS011;15488;48.114;11.532;2022-09-02T04:11:18;3.40;;;3.17;;
15679;SDS011;15488;48.114;11.532;2022-09-02T04:13:47;4.20;;;3.80;;
15679;SDS011;15488;48.114;11.532;2022-09-02T04:16:17;4.47;;;3.60;;
15679;SDS011;15488;48.114;11.532;2022-09-02T04:18:46;3.80;;;3.40;;
15679;SDS011;15488;48.114;11.532;2022-09-02T04:21:14;4.73;;;3.67;;
15679;SDS011;15488;48.114;11.532;2022-09-02T04:23:41;4.20;;;3.80;;
15679;SDS011;15488;48.114;11.532;2022-09-02T04:26:10;4.47;;;4.07;;
15679;SDS011;15488;48.114;11.532;2022-09-02T04:28:39;4.17;;;3.50;;
15679;SDS011;15488;48.114;11.532;2022-09-02T04:31:07;4.10;;;3.70;;
15679;SDS011;15488;48.114;11.532;2022-09-02T04:33:38;5.87;;;3.97;;
15679;SDS011;15488;48.114;11.532;2022-09-02T04:36:07;4.40;;;3.67;;
15679;SDS011;15488;48.114;11.532;2022-09-02T04:38:37;3.93;;;3.60;;
15679;SDS011;15488;48.114;11.532;2022-09-02T04:41:05;4.60;;;3.70;;
15679;SDS011;15488;48.114;11.532;2022-09-02T04:43:33;4.97;;;3.87;;
15679;SDS011;15488;48.114;11.532;2022-09-02T04:46:02;5.00;;;3.77;;
15679;SDS011;15488;48.114;11.532;2022-09-02T04:48:30;4.23;;;3.87;;
15679;SDS011;15488;48.114;11.532;2022-09-02T04:51:03;5.10;;;4.40;;
15679;SDS011;15488;48.114;11.532;2022-09-02T04:53:31;4.90;;;4.17;;
15679;SDS011;15488;48.114;11.532;2022-09-02T04:55:59;4.43;;;4.03;;
15679;SDS011;15488;48.114;11.532;2022-09-02T04:58:29;4.60;;;4.20;;
15679;SDS011;15488;48.114;11.532;2022-09-02T05:00:56;4.27;;;3.80;;
15679;SDS011;15488;48.114;11.532;2022-09-02T05:03:24;4.90;;;4.40;;
15679;SDS011;15488;48.114;11.532;2022-09-02T05:05:58;4.53;;;4.13;;
15679;SDS011;15488;48.114;11.532;2022-09-02T05:08:28;5.07;;;4.57;;
15679;SDS011;15488;48.114;11.532;2022-09-02T05:10:56;5.13;;;4.40;;
15679;SDS011;15488;48.114;11.532;2022-09-02T05:13:24;5.03;;;4.53;;
15679;SDS011;15488;48.114;11.532;2022-09-02T05:15:53;5.20;;;4.50;;
15679;SDS011;15488;48.114;11.532;2022-09-02T05:18:20;4.83;;;4.40;;
15679;SDS011;15488;48.114;11.532;2022-09-02T05:20:48;4.73;;;4.33;;
15679;SDS011;15488;48.114;11.532;2022-09-02T05:23:15;5.20;;;4.43;;
15679;SDS011;15488;48.114;11.532;2022-09-02T05:25:44;5.10;;;4.60;;
15679;SDS011;15488;48.114;11.532;2022-09-02T05:28:12;6.10;;;4.67;;
15679;SDS011;15488;48.114;11.532;2022-09-02T05:30:40;5.40;;;4.60;;
15679;SDS011;15488;48.114;11.532;2022-09-02T05:33:08;4.93;;;4.43;;
15679;SDS011;15488;48.114;11.532;2022-09-02T05:35:38;4.77;;;4.27;;
15679;SDS011;15488;48.114;11.532;2022-09-02T05:38:06;5.07;;;4.57;;
15679;SDS011;15488;48.114;11.532;2022-09-02T05:40:35;6.43;;;4.37;;
15679;SDS011;15488;48.114;11.532;2022-09-02T05:43:04;4.60;;;4.20;;
15679;SDS011;15488;48.114;11.532;2022-09-02T05:45:32;4.33;;;3.93;;
15679;SDS011;15488;48.114;11.532;2022-09-02T05:48:03;4.83;;;4.33;;
15679;SDS011;15488;48.114;11.532;2022-09-02T05:50:51;5.70;;;4.73;;
15679;SDS011;15488;48.114;11.532;2022-09-02T05:53:19;5.33;;;4.37;;
15679;SDS011;15488;48.114;11.532;2022-09-02T05:55:46;5.50;;;4.80;;
15679;SDS011;15488;48.114;11.532;2022-09-02T05:58:15;5.10;;;4.70;;
15679;SDS011;15488;48.114;11.532;2022-09-02T06:00:43;6.10;;;4.97;;
15679;SDS011;15488;48.114;11.532;2022-09-02T06:03:10;4.93;;;4.53;;
15679;SDS011;15488;48.114;11.532;2022-09-02T06:05:38;5.17;;;4.67;;
15679;SDS011;15488;48.114;11.532;2022-09-02T06:08:06;4.87;;;4.47;;
15679;SDS011;15488;48.114;11.532;2022-09-02T06:10:34;6.10;;;4.73;;
15679;SDS011;15488;48.114;11.532;2022-09-02T06:13:07;6.13;;;4.30;;
15679;SDS011;15488;48.114;11.532;2022-09-02T06:15:40;5.50;;;5.00;;
15679;SDS011;15488;48.114;11.532;2022-09-02T06:18:08;5.13;;;4.63;;
15679;SDS011;15488;48.114;11.532;2022-09-02T06:20:38;5.63;;;4.37;;
15679;SDS011;15488;48.114;11.532;2022-09-02T06:23:06;5.90;;;4.57;;
15679;SDS011;15488;48.114;11.532;2022-09-02T06:25:35;5.83;;;4.80;;
15679;SDS011;15488;48.114;11.532;2022-09-02T06:28:02;4.70;;;4.30;;
15679;SDS011;15488;48.114;11.532;2022-09-02T06:30:30;4.90;;;4.43;;
15679;SDS011;15488;48.114;11.532;2022-09-02T06:32:59;5.43;;;4.50;;
15679;SDS011;15488;48.114;11.532;2022-09-02T06:35:28;4.43;;;3.70;;
15679;SDS011;15488;48.114;11.532;2022-09-02T06:37:56;5.43;;;4.50;;
15679;SDS011;15488;48.114;11.532;2022-09-02T06:40:24;4.20;;;3.80;;
15679;SDS011;15488;48.114;11.532;2022-09-02T06:42:52;4.20;;;3.80;;
15679;SDS011;15488;48.114;11.532;2022-09-02T06:45:19;6.13;;;4.03;;
15679;SDS011;15488;48.114;11.532;2022-09-02T06:47:48;4.60;;;4.13;;
15679;SDS011;15488;48.114;11.532;2022-09-02T06:50:17;5.00;;;4.47;;
15679;SDS011;15488;48.114;11.532;2022-09-02T06:52:45;4.53;;;4.13;;
15679;SDS011;15488;48.114;11.532;2022-09-02T06:55:13;4.80;;;4.07;;
15679;SDS011;15488;48.114;11.532;2022-09-02T06:57:42;4.37;;;3.93;;
15679;SDS011;15488;48.114;11.532;2022-09-02T07:00:12;5.73;;;4.20;;
15679;SDS011;15488;48.114;11.532;2022-09-02T07:02:40;4.40;;;4.00;;
15679;SDS011;15488;48.114;11.532;2022-09-02T07:05:30;4.13;;;3.73;;
15679;SDS011;15488;48.114;11.532;2022-09-02T07:07:56;4.43;;;4.03;;
15679;SDS011;15488;48.114;11.532;2022-09-02T07:10:24;4.20;;;3.90;;
15679;SDS011;15488;48.114;11.532;2022-09-02T07:12:51;4.60;;;4.20;;
15679;SDS011;15488;48.114;11.532;2022-09-02T07:15:19;4.40;;;4.00;;
15679;SDS011;15488;48.114;11.532;2022-09-02T07:17:46;3.73;;;3.43;;
15679;SDS011;15488;48.114;11.532;2022-09-02T07:20:14;3.90;;;3.40;;
15679;SDS011;15488;48.114;11.532;2022-09-02T07:22:43;4.30;;;3.57;;
15679;SDS011;15488;48.114;11.532;2022-09-02T07:25:11;4.23;;;3.70;;
15679;SDS011;15488;48.114;11.532;2022-09-02T07:27:38;4.10;;;3.70;;
15679;SDS011;15488;48.114;11.532;2022-09-02T07:30:06;4.93;;;3.30;;
15679;SDS011;15488;48.114;11.532;2022-09-02T07:32:35;4.63;;;3.47;;
15679;SDS011;15488;48.114;11.532;2022-09-02T07:35:03;3.97;;;3.30;;
15679;SDS011;15488;48.114;11.532;2022-09-02T07:37:31;3.40;;;3.03;;
15679;SDS011;15488;48.114;11.532;2022-09-02T07:40:01;4.70;;;3.60;;
15679;SDS011;15488;48.114;11.532;2022-09-02T07:42:30;4.10;;;3.70;;
15679;SDS011;15488;48.114;11.532;2022-09-02T07:44:57;5.13;;;3.23;;
15679;SDS011;15488;48.114;11.532;2022-09-02T07:47:25;3.37;;;3.07;;
15679;SDS011;15488;48.114;11.532;2022-09-02T07:49:52;3.10;;;2.70;;
15679;SDS011;15488;48.114;11.532;2022-09-02T07:52:20;5.97;;;3.77;;
15679;SDS011;15488;48.114;11.532;2022-09-02T07:54:47;4.23;;;3.27;;
15679;SDS011;15488;48.114;11.532;2022-09-02T07:57:16;3.43;;;3.13;;
15679;SDS011;15488;48.114;11.532;2022-09-02T07:59:44;3.40;;;3.10;;
15679;SDS011;15488;48.114;11.532;2022-09-02T08:02:12;3.23;;;2.90;;
15679;SDS011;15488;48.114;11.532;2022-09-02T08:04:40;3.20;;;2.90;;
15679;SDS011;15488;48.114;11.532;2022-09-02T08:07:07;3.13;;;2.83;;
15679;SDS011;15488;48.114;11.532;2022-09-02T08:09:35;3.20;;;2.83;;
15679;SDS011;15488;48.114;11.532;2022-09-02T08:12:03;3.93;;;3.10;;
15679;SDS011;15488;48.114;11.532;2022-09-02T08:14:33;3.63;;;3.00;;
15679;SDS011;15488;48.114;11.532;2022-09-02T08:17:00;3.10;;;2.90;;
15679;SDS011;15488;48.114;11.532;2022-09-02T08:19:28;3.10;;;2.90;;
15679;SDS011;15488;48.114;11.532;2022-09-02T08:22:00;3.10;;;2.70;;
15679;SDS011;15488;48.114;11.532;2022-09-02T08:24:29;3.07;;;2.73;;
15679;SDS011;15488;48.114;11.532;2022-09-02T08:26:57;2.67;;;2.47;;
15679;SDS011;15488;48.114;11.532;2022-09-02T08:29:24;2.60;;;2.40;;
15679;SDS011;15488;48.114;11.532;2022-09-02T08:31:53;2.70;;;2.50;;
15679;SDS011;15488;48.114;11.532;2022-09-02T08:34:21;2.90;;;2.53;;
15679;SDS011;15488;48.114;11.532;2022-09-02T08:36:48;3.67;;;2.70;;
15679;SDS011;15488;48.114;11.532;2022-09-02T08:39:16;2.50;;;2.30;;
15679;SDS011;15488;48.114;11.532;2022-09-02T08:41:46;2.30;;;2.07;;
15679;SDS011;15488;48.114;11.532;2022-09-02T08:44:20;4.33;;;3.60;;
15679;SDS011;15488;48.114;11.532;2022-09-02T08:46:49;2.83;;;2.63;;
15679;SDS011;15488;48.114;11.532;2022-09-02T08:49:21;2.13;;;1.93;;
15679;SDS011;15488;48.114;11.532;2022-09-02T08:51:54;2.37;;;2.17;;
15679;SDS011;15488;48.114;11.532;2022-09-02T08:54:25;2.50;;;2.30;;
15679;SDS011;15488;48.114;11.532;2022-09-02T08:56:56;2.10;;;1.93;;
15679;SDS011;15488;48.114;11.532;2022-09-02T08:59:24;2.77;;;2.07;;
15679;SDS011;15488;48.114;11.532;2022-09-02T09:01:56;3.00;;;2.10;;
15679;SDS011;15488;48.114;11.532;2022-09-02T09:04:36;4.27;;;2.10;;
15679;SDS011;15488;48.114;11.532;2022-09-02T09:07:19;2.10;;;1.90;;
15679;SDS011;15488;48.114;11.532;2022-09-02T09:09:57;2.10;;;1.90;;
15679;SDS011;15488;48.114;11.532;2022-09-02T09:12:36;2.07;;;1.87;;
15679;SDS011;15488;48.114;11.532;2022-09-02T09:15:17;2.10;;;1.90;;
15679;SDS011;15488;48.114;11.532;2022-09-02T09:17:55;2.10;;;1.90;;
15679;SDS011;15488;48.114;11.532;2022-09-02T09:20:27;2.20;;;1.97;;
15679;SDS011;15488;48.114;11.532;2022-09-02T09:22:57;2.10;;;1.90;;
15679;SDS011;15488;48.114;11.532;2022-09-02T09:25:26;2.10;;;1.90;;
15679;SDS011;15488;48.114;11.532;2022-09-02T09:27:54;1.90;;;1.80;;
15679;SDS011;15488;48.114;11.532;2022-09-02T09:30:22;2.57;;;1.97;;
15679;SDS011;15488;48.114;11.532;2022-09-02T09:32:51;2.33;;;2.00;;
15679;SDS011;15488;48.114;11.532;2022-09-02T09:35:21;2.53;;;2.10;;
15679;SDS011;15488;48.114;11.532;2022-09-02T09:37:50;2.43;;;2.03;;
15679;SDS011;15488;48.114;11.532;2022-09-02T09:40:20;2.57;;;1.80;;
15679;SDS011;15488;48.114;11.532;2022-09-02T09:42:53;2.03;;;1.80;;
15679;SDS011;15488;48.114;11.532;2022-09-02T09:45:30;1.90;;;1.80;;
15679;SDS011;15488;48.114;11.532;2022-09-02T09:48:21;1.90;;;1.80;;
15679;SDS011;15488;48.114;11.532;2022-09-02T09:53:40;1.90;;;1.80;;
15679;SDS011;15488;48.114;11.532;2022-09-02T09:56:21;3.70;;;2.83;;
15679;SDS011;15488;48.114;11.532;2022-09-02T09:58:51;3.80;;;3.30;;
15679;SDS011;15488;48.114;11.532;2022-09-02T10:01:20;4.93;;;3.83;;
15679;SDS011;15488;48.114;11.532;2022-09-02T10:03:49;2.80;;;2.60;;
15679;SDS011;15488;48.114;11.532;2022-09-02T10:06:19;2.43;;;2.23;;
15679;SDS011;15488;48.114;11.532;2022-09-02T10:08:53;2.60;;;2.40;;
15679;SDS011;15488;48.114;11.532;2022-09-02T10:11:23;2.50;;;2.30;;
15679;SDS011;15488;48.114;11.532;2022-09-02T10:13:53;1.90;;;1.80;;
15679;SDS011;15488;48.114;11.532;2022-09-02T10:16:30;2.33;;;1.93;;
15679;SDS011;15488;48.114;11.532;2022-09-02T10:19:09;2.00;;;1.80;;
15679;SDS011;15488;48.114;11.532;2022-09-02T10:24:43;2.57;;;2.37;;
15679;SDS011;15488;48.114;11.532;2022-09-02T10:27:22;2.70;;;2.50;;
15679;SDS011;15488;48.114;11.532;2022-09-02T10:30:02;3.10;;;2.80;;
15679;SDS011;15488;48.114;11.532;2022-09-02T10:35:37;6.47;;;4.20;;
15679;SDS011;15488;48.114;11.532;2022-09-02T10:38:11;9.97;;;6.33;;
15679;SDS011;15488;48.114;11.532;2022-09-02T10:40:56;3.07;;;2.77;;
15679;SDS011;15488;48.114;11.532;2022-09-02T10:43:31;3.53;;;2.33;;
15679;SDS011;15488;48.114;11.532;2022-09-02T10:46:16;2.20;;;2.00;;
15679;SDS011;15488;48.114;11.532;2022-09-02T10:48:49;2.13;;;1.93;;
15679;SDS011;15488;48.114;11.532;2022-09-02T10:51:22;2.57;;;2.30;;
15679;SDS011;15488;48.114;11.532;2022-09-02T10:54:04;2.20;;;2.00;;
15679;SDS011;15488;48.114;11.532;2022-09-02T10:56:44;2.10;;;1.90;;
15679;SDS011;15488;48.114;11.532;2022-09-02T10:59:18;2.60;;;1.90;;
15679;SDS011;15488;48.114;11.532;2022-09-02T11:01:51;1.77;;;1.67;;
15679;SDS011;15488;48.114;11.532;2022-09-02T11:04:23;1.83;;;1.70;;
15679;SDS011;15488;48.114;11.532;2022-09-02T11:06:58;2.47;;;1.87;;
15679;SDS011;15488;48.114;11.532;2022-09-02T11:09:30;2.40;;;2.20;;
15679;SDS011;15488;48.114;11.532;2022-09-02T11:12:03;2.53;;;2.33;;
15679;SDS011;15488;48.114;11.532;2022-09-02T11:14:39;2.40;;;2.10;;
15679;SDS011;15488;48.114;11.532;2022-09-02T11:17:18;2.50;;;2.30;;
15679;SDS011;15488;48.114;11.532;2022-09-02T11:19:50;2.40;;;2.20;;
15679;SDS011;15488;48.114;11.532;2022-09-02T11:22:26;2.33;;;1.70;;
15679;SDS011;15488;48.114;11.532;2022-09-02T11:25:02;1.80;;;1.70;;
15679;SDS011;15488;48.114;11.532;2022-09-02T11:27:38;2.13;;;1.80;;
15679;SDS011;15488;48.114;11.532;2022-09-02T11:30:12;3.20;;;2.20;;
15679;SDS011;15488;48.114;11.532;2022-09-02T11:32:42;1.73;;;1.63;;
15679;SDS011;15488;48.114;11.532;2022-09-02T11:35:16;2.27;;;2.07;;
15679;SDS011;15488;48.114;11.532;2022-09-02T11:37:53;2.33;;;1.87;;
15679;SDS011;15488;48.114;11.532;2022-09-02T11:40:28;2.20;;;2.00;;
15679;SDS011;15488;48.114;11.532;2022-09-02T11:43:06;2.03;;;1.90;;
15679;SDS011;15488;48.114;11.532;2022-09-02T11:45:55;2.23;;;2.00;;
15679;SDS011;15488;48.114;11.532;2022-09-02T11:51:42;1.70;;;1.60;;
15679;SDS011;15488;48.114;11.532;2022-09-02T11:54:32;1.70;;;1.60;;
15679;SDS011;15488;48.114;11.532;2022-09-02T11:57:04;1.77;;;1.43;;
15679;SDS011;15488;48.114;11.532;2022-09-02T12:02:33;2.13;;;1.80;;
15679;SDS011;15488;48.114;11.532;2022-09-02T12:08:10;1.63;;;1.53;;
15679;SDS011;15488;48.114;11.532;2022-09-02T12:13:32;1.60;;;1.50;;
15679;SDS011;15488;48.114;11.532;2022-09-02T12:19:17;1.90;;;1.70;;
15679;SDS011;15488;48.114;11.532;2022-09-02T12:24:53;1.42;;;1.33;;
15679;SDS011;15488;48.114;11.532;2022-09-02T12:27:22;1.75;;;1.60;;
15679;SDS011;15488;48.114;11.532;2022-09-02T12:29:55;1.98;;;1.80;;
15679;SDS011;15488;48.114;11.532;2022-09-02T12:35:34;1.98;;;1.58;;
15679;SDS011;15488;48.114;11.532;2022-09-02T12:38:26;1.75;;;1.65;;
15679;SDS011;15488;48.114;11.532;2022-09-02T12:44:02;1.95;;;1.70;;
15679;SDS011;15488;48.114;11.532;2022-09-02T12:46:52;2.03;;;1.80;;
15679;SDS011;15488;48.114;11.532;2022-09-02T12:49:32;1.75;;;1.65;;
15679;SDS011;15488;48.114;11.532;2022-09-02T12:52:08;1.98;;;1.80;;
15679;SDS011;15488;48.114;11.532;2022-09-02T12:54:41;2.05;;;1.35;;
15679;SDS011;15488;48.114;11.532;2022-09-02T12:57:13;2.65;;;1.73;;
15679;SDS011;15488;48.114;11.532;2022-09-02T12:59:42;1.55;;;1.45;;
15679;SDS011;15488;48.114;11.532;2022-09-02T13:05:12;1.70;;;1.60;;
15679;SDS011;15488;48.114;11.532;2022-09-02T13:07:58;1.80;;;1.70;;
15679;SDS011;15488;48.114;11.532;2022-09-02T13:10:42;1.77;;;1.67;;
15679;SDS011;15488;48.114;11.532;2022-09-02T13:16:29;2.50;;;2.40;;
15679;SDS011;15488;48.114;11.532;2022-09-02T13:22:22;3.05;;;2.95;;
15679;SDS011;15488;48.114;11.532;2022-09-02T13:25:25;3.60;;;3.40;;
15679;SDS011;15488;48.114;11.532;2022-09-02T13:28:19;3.47;;;3.35;;
15679;SDS011;15488;48.114;11.532;2022-09-02T13:31:06;4.07;;;3.83;;
15679;SDS011;15488;48.114;11.532;2022-09-02T13:33:40;4.43;;;4.22;;
15679;SDS011;15488;48.114;11.532;2022-09-02T13:36:08;4.78;;;4.45;;
15679;SDS011;15488;48.114;11.532;2022-09-02T13:38:36;4.85;;;4.65;;
15679;SDS011;15488;48.114;11.532;2022-09-02T13:41:05;5.15;;;4.95;;
15679;SDS011;15488;48.114;11.532;2022-09-02T13:43:32;5.80;;;5.57;;
15679;SDS011;15488;48.114;11.532;2022-09-02T13:46:00;5.55;;;5.35;;
15679;SDS011;15488;48.114;11.532;2022-09-02T13:48:29;6.05;;;5.63;;
15679;SDS011;15488;48.114;11.532;2022-09-02T13:50:58;7.30;;;7.00;;
15679;SDS011;15488;48.114;11.532;2022-09-02T13:53:32;6.57;;;6.18;;
15679;SDS011;15488;48.114;11.532;2022-09-02T13:56:02;7.50;;;7.18;;
15679;SDS011;15488;48.114;11.532;2022-09-02T13:58:34;7.70;;;7.32;;
15679;SDS011;15488;48.114;11.532;2022-09-02T14:01:16;7.55;;;7.18;;
15679;SDS011;15488;48.114;11.532;2022-09-02T14:03:49;7.82;;;7.35;;
15679;SDS011;15488;48.114;11.532;2022-09-02T14:06:19;7.95;;;7.65;;
15679;SDS011;15488;48.114;11.532;2022-09-02T14:08:49;8.18;;;7.88;;
15679;SDS011;15488;48.114;11.532;2022-09-02T14:11:20;9.05;;;8.55;;
15679;SDS011;15488;48.114;11.532;2022-09-02T14:13:48;9.15;;;8.75;;
15679;SDS011;15488;48.114;11.532;2022-09-02T14:16:23;9.63;;;9.05;;
15679;SDS011;15488;48.114;11.532;2022-09-02T14:19:03;9.70;;;9.23;;
15679;SDS011;15488;48.114;11.532;2022-09-02T14:21:33;9.20;;;8.90;;
15679;SDS011;15488;48.114;11.532;2022-09-02T14:24:01;9.45;;;8.95;;
15679;SDS011;15488;48.114;11.532;2022-09-02T14:26:35;8.32;;;7.93;;
15679;SDS011;15488;48.114;11.532;2022-09-02T14:29:06;8.27;;;7.88;;
15679;SDS011;15488;48.114;11.532;2022-09-02T14:31:37;7.05;;;6.75;;
15679;SDS011;15488;48.114;11.532;2022-09-02T14:34:18;5.63;;;5.43;;
15679;SDS011;15488;48.114;11.532;2022-09-02T14:36:58;5.15;;;4.95;;
15679;SDS011;15488;48.114;11.532;2022-09-02T14:39:26;4.97;;;4.78;;
15679;SDS011;15488;48.114;11.532;2022-09-02T14:41:55;4.88;;;4.47;;
15679;SDS011;15488;48.114;11.532;2022-09-02T14:44:23;4.88;;;4.57;;
15679;SDS011;15488;48.114;11.532;2022-09-02T14:46:56;4.70;;;4.40;;
15679;SDS011;15488;48.114;11.532;2022-09-02T14:49:26;4.65;;;4.40;;
15679;SDS011;15488;48.114;11.532;2022-09-02T14:51:55;4.55;;;4.35;;
15679;SDS011;15488;48.114;11.532;2022-09-02T14:54:35;4.50;;;4.30;;
15679;SDS011;15488;48.114;11.532;2022-09-02T14:57:05;4.35;;;4.15;;
15679;SDS011;15488;48.114;11.532;2022-09-02T14:59:45;4.07;;;3.88;;
15679;SDS011;15488;48.114;11.532;2022-09-02T15:02:19;4.57;;;4.28;;
15679;SDS011;15488;48.114;11.532;2022-09-02T15:04:48;5.15;;;4.93;;
15679;SDS011;15488;48.114;11.532;2022-09-02T15:07:15;4.07;;;3.88;;
15679;SDS011;15488;48.114;11.532;2022-09-02T15:09:43;4.07;;;3.88;;
15679;SDS011;15488;48.114;11.532;2022-09-02T15:12:17;4.07;;;3.88;;
15679;SDS011;15488;48.114;11.532;2022-09-02T15:14:48;3.70;;;3.60;;
15679;SDS011;15488;48.114;11.532;2022-09-02T15:17:16;3.65;;;3.45;;
15679;SDS011;15488;48.114;11.532;2022-09-02T15:19:45;4.13;;;3.75;;
15679;SDS011;15488;48.114;11.532;2022-09-02T15:22:13;3.92;;;3.72;;
15679;SDS011;15488;48.114;11.532;2022-09-02T15:24:41;3.75;;;3.55;;
15679;SDS011;15488;48.114;11.532;2022-09-02T15:27:09;3.28;;;3.08;;
15679;SDS011;15488;48.114;11.532;2022-09-02T15:29:38;3.15;;;2.95;;
15679;SDS011;15488;48.114;11.532;2022-09-02T15:32:06;3.53;;;3.33;;
15679;SDS011;15488;48.114;11.532;2022-09-02T15:34:33;3.53;;;3.33;;
15679;SDS011;15488;48.114;11.532;2022-09-02T15:37:01;3.08;;;2.97;;